MSC Cordoba — A8OF8 — position and weather

sailwx.info

Track history (hours):
 
Tides and Currents Weather Stations Pressure Air Temp Water Temp Dewpoint Dewpoint Depression Visibility Wind Speed Wind Dir Waves Ship Positions

MSC Cordoba

Last reported at 2014-Nov-26 11:33 UTC. Time now 2014-Nov-28 03:06 UTC.
Position N 35°59' W 005°16'.

Length 275 m; draft 12.8 m.

Type: Ship (hazmat cat A). MMSI: 636091473.

Date/timePositionNaut miles runAvg speedWind from/ knotsBaromVisibWave heightAir tempDewpointWater temp
2014-Nov-26 11:33N 35°59' W 005°16'  
2014-Nov-23 21:31N 50°34' E 000°12'1818.6
2014-Nov-23 20:33N 50°39' E 000°39'2020.0
2014-Nov-23 19:33N 50°50' E 001°05'2221.9
2014-Nov-23 18:33N 51°04' E 001°31'2121.1
2014-Nov-23 17:33N 51°20' E 001°54'1916.6
2014-Nov-23 16:26N 51°21' E 002°24'1415.5
2014-Nov-23 15:32N 51°22' E 002°46'1515.2
2014-Nov-23 14:33N 51°24' E 003°10'1515.3
2014-Nov-23 13:33N 51°26' E 003°34'10 9.9
2014-Nov-23 12:34N 51°21' E 003°48'9 9.3
2014-Nov-23 11:33N 51°24' E 004°02'9 8.6
2014-Nov-23 10:33N 51°21' E 004°15'1 1.4
2014-Nov-23 09:34N 51°21' E 004°17'1 0.5
2014-Nov-23 08:33N 51°21' E 004°18'2 1.6
2014-Nov-23 07:29N 51°20' E 004°20'0 0.0
2014-Nov-23 06:31N 51°20' E 004°20'0 0.0
2014-Nov-23 05:31N 51°20' E 004°20'0 0.0
2014-Nov-23 04:21N 51°20' E 004°20'0 0.0
2014-Nov-23 03:31N 51°20' E 004°20'0 0.0
2014-Nov-23 02:31N 51°20' E 004°20'0 0.0
2014-Nov-23 01:31N 51°20' E 004°20'0 0.0
2014-Nov-23 00:32N 51°20' E 004°20'0 0.0
2014-Nov-22 23:32N 51°20' E 004°20'0 0.0
2014-Nov-22 22:32N 51°20' E 004°20'0 0.0
2014-Nov-22 21:25N 51°20' E 004°20'0 0.0
2014-Nov-22 20:31N 51°20' E 004°20'0 0.0
2014-Nov-22 19:33N 51°20' E 004°20'0 0.0
2014-Nov-22 18:33N 51°20' E 004°20'0 0.0
2014-Nov-22 17:29N 51°20' E 004°20'0 0.0
2014-Nov-22 16:32N 51°20' E 004°20'0 0.0
2014-Nov-22 15:32N 51°20' E 004°20'0 0.0
2014-Nov-22 14:30N 51°20' E 004°20'0 0.0
2014-Nov-22 13:28N 51°20' E 004°20'0 0.0
2014-Nov-22 12:33N 51°20' E 004°20'0 0.0
2014-Nov-22 11:27N 51°20' E 004°20'0 0.0
2014-Nov-22 10:32N 51°20' E 004°20'0 0.0
2014-Nov-22 09:32N 51°20' E 004°20'0 0.0
2014-Nov-22 08:32N 51°20' E 004°20'0 0.0
2014-Nov-22 07:28N 51°20' E 004°20'0 0.0
2014-Nov-22 06:31N 51°20' E 004°20'0 0.0
2014-Nov-22 05:33N 51°20' E 004°20'0 0.0
2014-Nov-22 04:33N 51°20' E 004°20'0 0.0
2014-Nov-22 03:33N 51°20' E 004°20'0 0.0
2014-Nov-22 02:31N 51°20' E 004°20'1 1.1
2014-Nov-22 01:33N 51°19' E 004°19'2 1.6
2014-Nov-22 00:34N 51°21' E 004°17'0 0.0
2014-Nov-21 23:33N 51°21' E 004°17'2 1.7
2014-Nov-21 22:34N 51°21' E 004°15'4 3.8
2014-Nov-21 21:33N 51°23' E 004°09'9 8.8
2014-Nov-21 20:33N 51°22' E 003°55'1211.9
2014-Nov-21 19:34N 51°26' E 003°37'1110.9
2014-Nov-21 18:33N 51°24' E 003°20'1615.5
2014-Nov-21 17:34N 51°25' E 002°55'1010.1
2014-Nov-21 16:33N 51°22' E 002°40'4 3.5
2014-Nov-21 15:24N 51°25' E 002°35'0 0.1
2014-Nov-21 14:30N 51°25' E 002°35'0 0.0
2014-Nov-21 13:32N 51°25' E 002°35'0 0.2
2014-Nov-21 12:33N 51°25' E 002°35'1413.4
2014-Nov-21 11:32N 51°19' E 002°16'1919.9
2014-Nov-21 10:33N 51°30' E 001°51'2019.9
2014-Nov-21 09:33N 51°50' E 001°42'1110.6
2014-Nov-21 08:33N 51°56' E 001°29'7 6.6
2014-Nov-21 07:32N 51°58' E 001°18'0 0.0
2014-Nov-21 06:32N 51°58' E 001°18'0 0.0
2014-Nov-21 05:31N 51°58' E 001°18'0 0.0
2014-Nov-21 04:31N 51°58' E 001°18'0 0.0
2014-Nov-21 03:33N 51°58' E 001°18'0 0.0
2014-Nov-21 02:33N 51°58' E 001°18'0 0.0
2014-Nov-21 01:32N 51°58' E 001°18'0 0.0
2014-Nov-21 00:32N 51°58' E 001°18'0 0.0
2014-Nov-20 23:32N 51°58' E 001°18'0 0.0
2014-Nov-20 22:28N 51°58' E 001°18'0 0.0
2014-Nov-20 21:31N 51°58' E 001°18'0 0.0
2014-Nov-20 20:33N 51°58' E 001°18'0 0.0
2014-Nov-20 19:33N 51°58' E 001°18'0 0.0
2014-Nov-20 18:32N 51°58' E 001°18'0 0.0
2014-Nov-20 17:32N 51°58' E 001°18'0 0.0
2014-Nov-20 16:32N 51°58' E 001°18'0 0.0
2014-Nov-20 15:31N 51°58' E 001°18'0 0.0
2014-Nov-20 14:31N 51°58' E 001°18'0 0.0
2014-Nov-20 13:33N 51°58' E 001°18'0 0.0
2014-Nov-20 12:33N 51°58' E 001°18'0 0.0
2014-Nov-20 11:32N 51°58' E 001°18'0 0.0
2014-Nov-20 10:32N 51°58' E 001°18'0 0.0
2014-Nov-20 09:32N 51°58' E 001°18'0 0.0
2014-Nov-20 08:28N 51°58' E 001°18'0 0.0
2014-Nov-20 07:31N 51°58' E 001°18'0 0.0
2014-Nov-20 06:33N 51°58' E 001°18'0 0.0
2014-Nov-20 05:33N 51°58' E 001°18'1 1.4
2014-Nov-20 04:33N 51°56' E 001°19'10 9.9
2014-Nov-20 03:33N 51°53' E 001°34'10 9.6
2014-Nov-20 02:33N 51°51' E 001°49'5 4.7
2014-Nov-20 01:33N 51°46' E 001°49'10 9.9
2014-Nov-20 00:33N 51°36' E 001°49'2 2.3
2014-Nov-19 23:34N 51°34' E 001°48'3 2.8
2014-Nov-19 22:34N 51°31' E 001°47'1515.1
2014-Nov-19 21:33N 51°17' E 001°41'1514.9
2014-Nov-19 20:34N 51°02' E 001°36'1615.3
2014-Nov-19 19:32N 50°49' E 001°23'1514.3
2014-Nov-19 18:29N 50°37' E 001°09'1111.8
2014-Nov-19 17:33N 50°30' E 000°54'1313.2
2014-Nov-19 16:33N 50°27' E 000°34'  
2014-Nov-17 09:22N 38°01' W 009°40'1619.7
2014-Nov-17 08:33N 37°45' W 009°36'5819.5
2014-Nov-17 05:33N 36°49' W 009°13'2019.6
2014-Nov-17 04:33N 36°41' W 008°51'2120.5
2014-Nov-17 03:32N 36°34' W 008°26'14420.6
2014-Nov-16 20:33N 35°58' W 005°34'1918.7
2014-Nov-16 19:33N 36°02' W 005°11'  
Track history (hours):
 
Tides and Currents Weather Stations Pressure Air Temp Water Temp Dewpoint Dewpoint Depression Visibility Wind Speed Wind Dir Waves Ship Positions

MSC Cordoba

Last reported at 2014-Nov-26 11:33 UTC. Time now 2014-Nov-28 03:06 UTC.
Position N 35°59' W 005°16'.

Length 275 m; draft 12.8 m.

Type: Ship (hazmat cat A). MMSI: 636091473.

Date/timePositionNaut miles runAvg speedWind from/ knotsBaromVisibWave heightAir tempDewpointWater temp
2014-Nov-26 11:33N 35°59' W 005°16'  
2014-Nov-23 21:31N 50°34' E 000°12'1818.6
2014-Nov-23 20:33N 50°39' E 000°39'2020.0
2014-Nov-23 19:33N 50°50' E 001°05'2221.9
2014-Nov-23 18:33N 51°04' E 001°31'2121.1
2014-Nov-23 17:33N 51°20' E 001°54'1916.6
2014-Nov-23 16:26N 51°21' E 002°24'1415.5
2014-Nov-23 15:32N 51°22' E 002°46'1515.2
2014-Nov-23 14:33N 51°24' E 003°10'1515.3
2014-Nov-23 13:33N 51°26' E 003°34'10 9.9
2014-Nov-23 12:34N 51°21' E 003°48'9 9.3
2014-Nov-23 11:33N 51°24' E 004°02'9 8.6
2014-Nov-23 10:33N 51°21' E 004°15'1 1.4
2014-Nov-23 09:34N 51°21' E 004°17'1 0.5
2014-Nov-23 08:33N 51°21' E 004°18'2 1.6
2014-Nov-23 07:29N 51°20' E 004°20'0 0.0
2014-Nov-23 06:31N 51°20' E 004°20'0 0.0
2014-Nov-23 05:31N 51°20' E 004°20'0 0.0
2014-Nov-23 04:21N 51°20' E 004°20'0 0.0
2014-Nov-23 03:31N 51°20' E 004°20'0 0.0
2014-Nov-23 02:31N 51°20' E 004°20'0 0.0
2014-Nov-23 01:31N 51°20' E 004°20'0 0.0
2014-Nov-23 00:32N 51°20' E 004°20'0 0.0
2014-Nov-22 23:32N 51°20' E 004°20'0 0.0
2014-Nov-22 22:32N 51°20' E 004°20'0 0.0
2014-Nov-22 21:25N 51°20' E 004°20'0 0.0
2014-Nov-22 20:31N 51°20' E 004°20'0 0.0
2014-Nov-22 19:33N 51°20' E 004°20'0 0.0
2014-Nov-22 18:33N 51°20' E 004°20'0 0.0
2014-Nov-22 17:29N 51°20' E 004°20'0 0.0
2014-Nov-22 16:32N 51°20' E 004°20'0 0.0
2014-Nov-22 15:32N 51°20' E 004°20'0 0.0
2014-Nov-22 14:30N 51°20' E 004°20'0 0.0
2014-Nov-22 13:28N 51°20' E 004°20'0 0.0
2014-Nov-22 12:33N 51°20' E 004°20'0 0.0
2014-Nov-22 11:27N 51°20' E 004°20'0 0.0
2014-Nov-22 10:32N 51°20' E 004°20'0 0.0
2014-Nov-22 09:32N 51°20' E 004°20'0 0.0
2014-Nov-22 08:32N 51°20' E 004°20'0 0.0
2014-Nov-22 07:28N 51°20' E 004°20'0 0.0
2014-Nov-22 06:31N 51°20' E 004°20'0 0.0
2014-Nov-22 05:33N 51°20' E 004°20'0 0.0
2014-Nov-22 04:33N 51°20' E 004°20'0 0.0
2014-Nov-22 03:33N 51°20' E 004°20'0 0.0
2014-Nov-22 02:31N 51°20' E 004°20'1 1.1
2014-Nov-22 01:33N 51°19' E 004°19'2 1.6
2014-Nov-22 00:34N 51°21' E 004°17'0 0.0
2014-Nov-21 23:33N 51°21' E 004°17'2 1.7
2014-Nov-21 22:34N 51°21' E 004°15'4 3.8
2014-Nov-21 21:33N 51°23' E 004°09'9 8.8
2014-Nov-21 20:33N 51°22' E 003°55'1211.9
2014-Nov-21 19:34N 51°26' E 003°37'1110.9
2014-Nov-21 18:33N 51°24' E 003°20'1615.5
2014-Nov-21 17:34N 51°25' E 002°55'1010.1
2014-Nov-21 16:33N 51°22' E 002°40'4 3.5
2014-Nov-21 15:24N 51°25' E 002°35'0 0.1
2014-Nov-21 14:30N 51°25' E 002°35'0 0.0
2014-Nov-21 13:32N 51°25' E 002°35'0 0.2
2014-Nov-21 12:33N 51°25' E 002°35'1413.4
2014-Nov-21 11:32N 51°19' E 002°16'1919.9
2014-Nov-21 10:33N 51°30' E 001°51'2019.9
2014-Nov-21 09:33N 51°50' E 001°42'1110.6
2014-Nov-21 08:33N 51°56' E 001°29'7 6.6
2014-Nov-21 07:32N 51°58' E 001°18'0 0.0
2014-Nov-21 06:32N 51°58' E 001°18'0 0.0
2014-Nov-21 05:31N 51°58' E 001°18'0 0.0
2014-Nov-21 04:31N 51°58' E 001°18'0 0.0
2014-Nov-21 03:33N 51°58' E 001°18'0 0.0
2014-Nov-21 02:33N 51°58' E 001°18'0 0.0
2014-Nov-21 01:32N 51°58' E 001°18'0 0.0
2014-Nov-21 00:32N 51°58' E 001°18'0 0.0
2014-Nov-20 23:32N 51°58' E 001°18'0 0.0
2014-Nov-20 22:28N 51°58' E 001°18'0 0.0
2014-Nov-20 21:31N 51°58' E 001°18'0 0.0
2014-Nov-20 20:33N 51°58' E 001°18'0 0.0
2014-Nov-20 19:33N 51°58' E 001°18'0 0.0
2014-Nov-20 18:32N 51°58' E 001°18'0 0.0
2014-Nov-20 17:32N 51°58' E 001°18'0 0.0
2014-Nov-20 16:32N 51°58' E 001°18'0 0.0
2014-Nov-20 15:31N 51°58' E 001°18'0 0.0
2014-Nov-20 14:31N 51°58' E 001°18'0 0.0
2014-Nov-20 13:33N 51°58' E 001°18'0 0.0
2014-Nov-20 12:33N 51°58' E 001°18'0 0.0
2014-Nov-20 11:32N 51°58' E 001°18'0 0.0
2014-Nov-20 10:32N 51°58' E 001°18'0 0.0
2014-Nov-20 09:32N 51°58' E 001°18'0 0.0
2014-Nov-20 08:28N 51°58' E 001°18'0 0.0
2014-Nov-20 07:31N 51°58' E 001°18'0 0.0
2014-Nov-20 06:33N 51°58' E 001°18'0 0.0
2014-Nov-20 05:33N 51°58' E 001°18'1 1.4
2014-Nov-20 04:33N 51°56' E 001°19'10 9.9
2014-Nov-20 03:33N 51°53' E 001°34'10 9.6
2014-Nov-20 02:33N 51°51' E 001°49'5 4.7
2014-Nov-20 01:33N 51°46' E 001°49'10 9.9
2014-Nov-20 00:33N 51°36' E 001°49'2 2.3
2014-Nov-19 23:34N 51°34' E 001°48'3 2.8
2014-Nov-19 22:34N 51°31' E 001°47'1515.1
2014-Nov-19 21:33N 51°17' E 001°41'1514.9
2014-Nov-19 20:34N 51°02' E 001°36'1615.3
2014-Nov-19 19:32N 50°49' E 001°23'1514.3
2014-Nov-19 18:29N 50°37' E 001°09'1111.8
2014-Nov-19 17:33N 50°30' E 000°54'1313.2
2014-Nov-19 16:33N 50°27' E 000°34'  
2014-Nov-17 09:22N 38°01' W 009°40'1619.7
2014-Nov-17 08:33N 37°45' W 009°36'5819.5
2014-Nov-17 05:33N 36°49' W 009°13'2019.6
2014-Nov-17 04:33N 36°41' W 008°51'2120.5
2014-Nov-17 03:32N 36°34' W 008°26'14420.6
2014-Nov-16 20:33N 35°58' W 005°34'1918.7
2014-Nov-16 19:33N 36°02' W 005°11'  

Dump ship's entire track history